sensor_id;sensor_type;location;lat;lon;timestamp;temperature;humidity
9215;DHT22;4642;51.364;6.788;2023-03-04T00:00:11;4.60;99.90
9215;DHT22;4642;51.364;6.788;2023-03-04T00:02:36;4.50;99.90
9215;DHT22;4642;51.364;6.788;2023-03-04T00:05:02;4.60;99.90
9215;DHT22;4642;51.364;6.788;2023-03-04T00:07:28;4.50;99.90
9215;DHT22;4642;51.364;6.788;2023-03-04T00:09:54;4.50;99.90
9215;DHT22;4642;51.364;6.788;2023-03-04T00:12:19;4.50;99.90
9215;DHT22;4642;51.364;6.788;2023-03-04T00:14:45;4.50;99.90
9215;DHT22;4642;51.364;6.788;2023-03-04T00:17:10;4.40;99.90
9215;DHT22;4642;51.364;6.788;2023-03-04T00:19:36;4.40;99.90
9215;DHT22;4642;51.364;6.788;2023-03-04T00:25:54;4.40;99.90
9215;DHT22;4642;51.364;6.788;2023-03-04T00:28:22;4.40;99.90
9215;DHT22;4642;51.364;6.788;2023-03-04T00:30:50;5.00;99.90
9215;DHT22;4642;51.364;6.788;2023-03-04T00:33:18;4.50;99.90
9215;DHT22;4642;51.364;6.788;2023-03-04T00:36:00;4.40;99.90
9215;DHT22;4642;51.364;6.788;2023-03-04T00:39:12;3.30;99.90
9215;DHT22;4642;51.364;6.788;2023-03-04T00:41:41;4.50;99.90
9215;DHT22;4642;51.364;6.788;2023-03-04T00:44:12;4.80;99.90
9215;DHT22;4642;51.364;6.788;2023-03-04T00:46:45;4.50;99.90
9215;DHT22;4642;51.364;6.788;2023-03-04T00:49:25;5.40;99.90
9215;DHT22;4642;51.364;6.788;2023-03-04T00:51:56;4.50;99.90
9215;DHT22;4642;51.364;6.788;2023-03-04T00:54:27;4.50;99.90
9215;DHT22;4642;51.364;6.788;2023-03-04T00:57:23;4.70;99.90
9215;DHT22;4642;51.364;6.788;2023-03-04T01:00:07;4.40;99.90
9215;DHT22;4642;51.364;6.788;2023-03-04T01:02:50;4.30;99.90
9215;DHT22;4642;51.364;6.788;2023-03-04T01:05:30;3.80;99.90
9215;DHT22;4642;51.364;6.788;2023-03-04T01:08:25;4.00;99.90
9215;DHT22;4642;51.364;6.788;2023-03-04T01:11:01;4.20;99.90
9215;DHT22;4642;51.364;6.788;2023-03-04T01:13:53;4.60;99.90
9215;DHT22;4642;51.364;6.788;2023-03-04T01:19:27;4.40;99.90
9215;DHT22;4642;51.364;6.788;2023-03-04T01:22:01;4.80;99.90
9215;DHT22;4642;51.364;6.788;2023-03-04T01:24:55;4.10;99.90
9215;DHT22;4642;51.364;6.788;2023-03-04T01:30:29;4.30;99.90
9215;DHT22;4642;51.364;6.788;2023-03-04T01:33:04;4.10;99.90
9215;DHT22;4642;51.364;6.788;2023-03-04T01:35:35;4.20;99.90
9215;DHT22;4642;51.364;6.788;2023-03-04T01:38:03;4.50;99.90
9215;DHT22;4642;51.364;6.788;2023-03-04T01:41:04;4.40;99.90
9215;DHT22;4642;51.364;6.788;2023-03-04T01:43:37;4.30;99.90
9215;DHT22;4642;51.364;6.788;2023-03-04T01:46:06;4.40;99.90
9215;DHT22;4642;51.364;6.788;2023-03-04T01:48:44;4.80;99.90
9215;DHT22;4642;51.364;6.788;2023-03-04T01:51:33;4.50;99.90
9215;DHT22;4642;51.364;6.788;2023-03-04T01:54:20;4.40;99.90
9215;DHT22;4642;51.364;6.788;2023-03-04T01:56:57;4.50;99.90
9215;DHT22;4642;51.364;6.788;2023-03-04T01:59:43;4.20;99.90
9215;DHT22;4642;51.364;6.788;2023-03-04T02:02:23;4.60;99.90
9215;DHT22;4642;51.364;6.788;2023-03-04T02:05:15;5.30;99.90
9215;DHT22;4642;51.364;6.788;2023-03-04T02:07:57;4.60;99.90
9215;DHT22;4642;51.364;6.788;2023-03-04T02:10:57;4.50;99.90
9215;DHT22;4642;51.364;6.788;2023-03-04T02:13:34;4.40;99.90
9215;DHT22;4642;51.364;6.788;2023-03-04T02:16:19;4.70;99.90
9215;DHT22;4642;51.364;6.788;2023-03-04T02:21:32;4.90;99.90
9215;DHT22;4642;51.364;6.788;2023-03-04T02:24:25;4.60;99.90
9215;DHT22;4642;51.364;6.788;2023-03-04T02:26:54;4.70;99.90
9215;DHT22;4642;51.364;6.788;2023-03-04T02:29:47;4.80;99.90
9215;DHT22;4642;51.364;6.788;2023-03-04T02:32:31;5.00;99.90
9215;DHT22;4642;51.364;6.788;2023-03-04T02:35:04;4.70;99.90
9215;DHT22;4642;51.364;6.788;2023-03-04T02:37:30;4.70;99.90
9215;DHT22;4642;51.364;6.788;2023-03-04T02:40:57;4.90;99.90
9215;DHT22;4642;51.364;6.788;2023-03-04T02:43:13;4.90;99.90
9215;DHT22;4642;51.364;6.788;2023-03-04T02:46:11;4.80;99.90
9215;DHT22;4642;51.364;6.788;2023-03-04T02:48:49;5.00;99.90
9215;DHT22;4642;51.364;6.788;2023-03-04T02:51:41;4.80;99.90
9215;DHT22;4642;51.364;6.788;2023-03-04T02:54:23;5.00;99.90
9215;DHT22;4642;51.364;6.788;2023-03-04T02:58:24;5.00;99.90
9215;DHT22;4642;51.364;6.788;2023-03-04T03:00:58;5.00;99.90
9215;DHT22;4642;51.364;6.788;2023-03-04T03:03:39;4.90;99.90
9215;DHT22;4642;51.364;6.788;2023-03-04T03:06:25;5.60;99.90
9215;DHT22;4642;51.364;6.788;2023-03-04T03:08:58;4.90;99.90
9215;DHT22;4642;51.364;6.788;2023-03-04T03:15:07;5.30;99.90
9215;DHT22;4642;51.364;6.788;2023-03-04T03:18:27;5.40;99.90
9215;DHT22;4642;51.364;6.788;2023-03-04T03:21:49;4.80;99.90
9215;DHT22;4642;51.364;6.788;2023-03-04T03:24:36;4.90;99.90
9215;DHT22;4642;51.364;6.788;2023-03-04T03:34:17;4.90;99.90
9215;DHT22;4642;51.364;6.788;2023-03-04T03:37:13;5.30;99.90
9215;DHT22;4642;51.364;6.788;2023-03-04T03:47:13;5.00;99.90
9215;DHT22;4642;51.364;6.788;2023-03-04T04:00:45;4.70;99.90
9215;DHT22;4642;51.364;6.788;2023-03-04T04:16:44;5.00;99.90
9215;DHT22;4642;51.364;6.788;2023-03-04T04:19:58;4.90;99.90
9215;DHT22;4642;51.364;6.788;2023-03-04T04:22:49;5.10;99.90
9215;DHT22;4642;51.364;6.788;2023-03-04T04:25:42;5.00;99.90
9215;DHT22;4642;51.364;6.788;2023-03-04T04:31:51;5.20;99.90
9215;DHT22;4642;51.364;6.788;2023-03-04T04:35:03;5.00;99.90
9215;DHT22;4642;51.364;6.788;2023-03-04T04:38:02;5.70;99.90
9215;DHT22;4642;51.364;6.788;2023-03-04T04:44:42;5.00;99.90
9215;DHT22;4642;51.364;6.788;2023-03-04T04:47:59;5.30;99.90
9215;DHT22;4642;51.364;6.788;2023-03-04T04:56:49;5.10;99.90
9215;DHT22;4642;51.364;6.788;2023-03-04T04:59:37;5.00;99.90
9215;DHT22;4642;51.364;6.788;2023-03-04T05:02:42;4.50;99.90
9215;DHT22;4642;51.364;6.788;2023-03-04T05:05:49;5.40;99.90
9215;DHT22;4642;51.364;6.788;2023-03-04T05:12:05;5.00;99.90
9215;DHT22;4642;51.364;6.788;2023-03-04T05:15:21;5.00;99.90
9215;DHT22;4642;51.364;6.788;2023-03-04T05:18:44;5.40;99.90
9215;DHT22;4642;51.364;6.788;2023-03-04T05:31:41;5.00;99.90
9215;DHT22;4642;51.364;6.788;2023-03-04T05:35:01;4.90;99.90
9215;DHT22;4642;51.364;6.788;2023-03-04T05:38:06;5.10;99.90
9215;DHT22;4642;51.364;6.788;2023-03-04T05:41:17;5.00;99.90
9215;DHT22;4642;51.364;6.788;2023-03-04T05:51:07;4.70;99.90
9215;DHT22;4642;51.364;6.788;2023-03-04T05:54:07;5.00;99.90
9215;DHT22;4642;51.364;6.788;2023-03-04T05:57:35;5.10;99.90
9215;DHT22;4642;51.364;6.788;2023-03-04T05:59:57;5.00;99.90
9215;DHT22;4642;51.364;6.788;2023-03-04T06:02:28;5.10;99.90
9215;DHT22;4642;51.364;6.788;2023-03-04T06:05:05;5.10;99.90
9215;DHT22;4642;51.364;6.788;2023-03-04T06:07:46;5.10;99.90
9215;DHT22;4642;51.364;6.788;2023-03-04T06:10:24;4.90;99.90
9215;DHT22;4642;51.364;6.788;2023-03-04T06:12:53;4.30;99.90
9215;DHT22;4642;51.364;6.788;2023-03-04T06:15:33;5.90;99.90
9215;DHT22;4642;51.364;6.788;2023-03-04T06:18:10;5.20;99.90
9215;DHT22;4642;51.364;6.788;2023-03-04T06:24:19;5.10;99.90
9215;DHT22;4642;51.364;6.788;2023-03-04T06:27:26;5.10;99.90
9215;DHT22;4642;51.364;6.788;2023-03-04T06:30:11;5.10;99.90
9215;DHT22;4642;51.364;6.788;2023-03-04T06:33:01;5.20;99.90
9215;DHT22;4642;51.364;6.788;2023-03-04T06:39:48;5.10;99.90
9215;DHT22;4642;51.364;6.788;2023-03-04T06:45:48;5.00;99.90
9215;DHT22;4642;51.364;6.788;2023-03-04T06:48:13;5.10;99.90
9215;DHT22;4642;51.364;6.788;2023-03-04T06:50:39;5.30;99.90
9215;DHT22;4642;51.364;6.788;2023-03-04T06:53:05;6.10;99.90
9215;DHT22;4642;51.364;6.788;2023-03-04T06:55:31;5.20;99.90
9215;DHT22;4642;51.364;6.788;2023-03-04T06:57:56;5.60;99.90
9215;DHT22;4642;51.364;6.788;2023-03-04T07:00:24;5.20;99.90
9215;DHT22;4642;51.364;6.788;2023-03-04T07:02:52;5.30;99.90
9215;DHT22;4642;51.364;6.788;2023-03-04T07:05:17;4.80;99.90
9215;DHT22;4642;51.364;6.788;2023-03-04T07:07:43;5.10;99.90
9215;DHT22;4642;51.364;6.788;2023-03-04T07:10:09;5.30;99.90
9215;DHT22;4642;51.364;6.788;2023-03-04T07:12:35;5.20;99.90
9215;DHT22;4642;51.364;6.788;2023-03-04T07:15:01;5.10;99.90
9215;DHT22;4642;51.364;6.788;2023-03-04T07:17:27;5.10;99.90
9215;DHT22;4642;51.364;6.788;2023-03-04T07:19:52;5.60;99.90
9215;DHT22;4642;51.364;6.788;2023-03-04T07:22:18;5.30;99.90
9215;DHT22;4642;51.364;6.788;2023-03-04T07:24:44;5.30;99.90
9215;DHT22;4642;51.364;6.788;2023-03-04T07:27:09;5.30;99.90
9215;DHT22;4642;51.364;6.788;2023-03-04T07:29:38;5.20;99.90
9215;DHT22;4642;51.364;6.788;2023-03-04T07:32:07;5.20;99.90
9215;DHT22;4642;51.364;6.788;2023-03-04T07:34:35;5.60;99.90
9215;DHT22;4642;51.364;6.788;2023-03-04T07:37:01;5.10;99.90
9215;DHT22;4642;51.364;6.788;2023-03-04T07:39:27;4.80;99.90
9215;DHT22;4642;51.364;6.788;2023-03-04T07:41:52;5.20;99.90
9215;DHT22;4642;51.364;6.788;2023-03-04T07:44:20;5.50;99.90
9215;DHT22;4642;51.364;6.788;2023-03-04T07:46:46;5.50;99.90
9215;DHT22;4642;51.364;6.788;2023-03-04T07:49:12;5.60;99.90
9215;DHT22;4642;51.364;6.788;2023-03-04T07:51:38;5.30;99.90
9215;DHT22;4642;51.364;6.788;2023-03-04T07:54:04;5.20;99.90
9215;DHT22;4642;51.364;6.788;2023-03-04T07:56:31;5.30;99.90
9215;DHT22;4642;51.364;6.788;2023-03-04T07:58:57;5.20;99.90
9215;DHT22;4642;51.364;6.788;2023-03-04T08:01:34;5.30;99.90
9215;DHT22;4642;51.364;6.788;2023-03-04T08:04:01;5.30;99.90
9215;DHT22;4642;51.364;6.788;2023-03-04T08:06:27;5.30;99.90
9215;DHT22;4642;51.364;6.788;2023-03-04T08:09:02;5.40;99.90
9215;DHT22;4642;51.364;6.788;2023-03-04T08:11:28;5.40;99.90
9215;DHT22;4642;51.364;6.788;2023-03-04T08:13:55;5.40;99.90
9215;DHT22;4642;51.364;6.788;2023-03-04T08:16:22;5.50;99.90
9215;DHT22;4642;51.364;6.788;2023-03-04T08:18:50;5.50;99.90
9215;DHT22;4642;51.364;6.788;2023-03-04T08:21:18;5.60;99.90
9215;DHT22;4642;51.364;6.788;2023-03-04T08:23:44;5.50;99.90
9215;DHT22;4642;51.364;6.788;2023-03-04T08:26:13;5.50;99.90
9215;DHT22;4642;51.364;6.788;2023-03-04T08:28:40;5.50;99.90
9215;DHT22;4642;51.364;6.788;2023-03-04T08:31:05;5.60;99.90
9215;DHT22;4642;51.364;6.788;2023-03-04T08:33:32;5.60;99.90
9215;DHT22;4642;51.364;6.788;2023-03-04T08:35:57;5.60;99.90
9215;DHT22;4642;51.364;6.788;2023-03-04T08:38:23;5.70;99.90
9215;DHT22;4642;51.364;6.788;2023-03-04T08:40:55;5.70;99.90
9215;DHT22;4642;51.364;6.788;2023-03-04T08:43:23;5.70;99.90
9215;DHT22;4642;51.364;6.788;2023-03-04T08:45:49;5.80;99.90
9215;DHT22;4642;51.364;6.788;2023-03-04T08:48:15;5.80;99.90
9215;DHT22;4642;51.364;6.788;2023-03-04T08:50:43;5.80;99.90
9215;DHT22;4642;51.364;6.788;2023-03-04T08:53:08;5.80;99.90
9215;DHT22;4642;51.364;6.788;2023-03-04T08:55:34;5.70;99.90
9215;DHT22;4642;51.364;6.788;2023-03-04T08:58:01;5.80;99.90
9215;DHT22;4642;51.364;6.788;2023-03-04T09:00:27;5.80;99.90
9215;DHT22;4642;51.364;6.788;2023-03-04T09:02:52;5.80;99.90
9215;DHT22;4642;51.364;6.788;2023-03-04T09:05:20;5.90;99.90
9215;DHT22;4642;51.364;6.788;2023-03-04T09:07:45;5.80;99.90
9215;DHT22;4642;51.364;6.788;2023-03-04T09:10:11;5.90;99.90
9215;DHT22;4642;51.364;6.788;2023-03-04T09:12:37;5.90;99.90
9215;DHT22;4642;51.364;6.788;2023-03-04T09:15:03;5.90;99.90
9215;DHT22;4642;51.364;6.788;2023-03-04T09:17:31;5.90;99.90
9215;DHT22;4642;51.364;6.788;2023-03-04T09:19:56;5.90;99.90
9215;DHT22;4642;51.364;6.788;2023-03-04T09:22:22;5.90;99.90
9215;DHT22;4642;51.364;6.788;2023-03-04T09:24:47;6.00;99.90
9215;DHT22;4642;51.364;6.788;2023-03-04T09:27:13;6.00;99.90
9215;DHT22;4642;51.364;6.788;2023-03-04T09:29:38;6.00;99.90
9215;DHT22;4642;51.364;6.788;2023-03-04T09:32:04;6.00;99.90
9215;DHT22;4642;51.364;6.788;2023-03-04T09:34:30;6.10;99.90
9215;DHT22;4642;51.364;6.788;2023-03-04T09:36:55;6.20;99.90
9215;DHT22;4642;51.364;6.788;2023-03-04T09:39:21;6.20;99.90
9215;DHT22;4642;51.364;6.788;2023-03-04T09:41:50;6.30;99.90
9215;DHT22;4642;51.364;6.788;2023-03-04T09:46:49;6.30;99.90
9215;DHT22;4642;51.364;6.788;2023-03-04T09:49:17;6.40;99.90
9215;DHT22;4642;51.364;6.788;2023-03-04T09:57:26;6.50;99.90
9215;DHT22;4642;51.364;6.788;2023-03-04T10:00:04;6.50;99.90
9215;DHT22;4642;51.364;6.788;2023-03-04T10:02:43;6.50;99.90
9215;DHT22;4642;51.364;6.788;2023-03-04T10:05:17;6.60;99.90
9215;DHT22;4642;51.364;6.788;2023-03-04T10:07:47;6.70;99.90
9215;DHT22;4642;51.364;6.788;2023-03-04T10:10:31;6.70;99.90
9215;DHT22;4642;51.364;6.788;2023-03-04T10:12:59;6.80;99.90
9215;DHT22;4642;51.364;6.788;2023-03-04T10:15:33;6.80;99.90
9215;DHT22;4642;51.364;6.788;2023-03-04T10:18:24;6.80;99.90
9215;DHT22;4642;51.364;6.788;2023-03-04T10:24:00;6.90;99.90
9215;DHT22;4642;51.364;6.788;2023-03-04T10:26:30;7.00;99.90
9215;DHT22;4642;51.364;6.788;2023-03-04T10:28:58;7.10;99.90
9215;DHT22;4642;51.364;6.788;2023-03-04T10:31:32;7.10;99.90
9215;DHT22;4642;51.364;6.788;2023-03-04T10:34:04;7.20;99.90
9215;DHT22;4642;51.364;6.788;2023-03-04T10:39:02;7.20;99.90
9215;DHT22;4642;51.364;6.788;2023-03-04T10:41:30;7.20;99.90
9215;DHT22;4642;51.364;6.788;2023-03-04T10:46:27;7.30;99.90
9215;DHT22;4642;51.364;6.788;2023-03-04T10:48:53;7.20;99.90
9215;DHT22;4642;51.364;6.788;2023-03-04T10:51:22;7.20;99.90
9215;DHT22;4642;51.364;6.788;2023-03-04T10:53:51;7.10;99.90
9215;DHT22;4642;51.364;6.788;2023-03-04T10:56:38;7.10;99.90
9215;DHT22;4642;51.364;6.788;2023-03-04T11:01:50;7.30;99.90
9215;DHT22;4642;51.364;6.788;2023-03-04T11:04:18;7.40;99.90
9215;DHT22;4642;51.364;6.788;2023-03-04T11:06:43;7.40;99.90
9215;DHT22;4642;51.364;6.788;2023-03-04T11:09:22;7.50;99.90
9215;DHT22;4642;51.364;6.788;2023-03-04T11:11:49;7.40;99.90
9215;DHT22;4642;51.364;6.788;2023-03-04T11:14:24;7.30;99.90
9215;DHT22;4642;51.364;6.788;2023-03-04T11:17:02;7.40;99.90
9215;DHT22;4642;51.364;6.788;2023-03-04T11:19:41;7.50;99.90
9215;DHT22;4642;51.364;6.788;2023-03-04T11:22:16;7.60;99.90
9215;DHT22;4642;51.364;6.788;2023-03-04T11:24:43;7.60;99.90
9215;DHT22;4642;51.364;6.788;2023-03-04T11:27:23;7.70;99.90
9215;DHT22;4642;51.364;6.788;2023-03-04T11:32:50;7.70;99.90
9215;DHT22;4642;51.364;6.788;2023-03-04T11:35:28;7.80;99.90
9215;DHT22;4642;51.364;6.788;2023-03-04T11:38:16;7.80;99.90
9215;DHT22;4642;51.364;6.788;2023-03-04T11:40:56;7.80;99.90
9215;DHT22;4642;51.364;6.788;2023-03-04T11:43:35;7.80;99.90
9215;DHT22;4642;51.364;6.788;2023-03-04T11:51:54;7.70;99.90
9215;DHT22;4642;51.364;6.788;2023-03-04T11:57:28;7.60;99.90
9215;DHT22;4642;51.364;6.788;2023-03-04T12:05:31;7.70;99.90
9215;DHT22;4642;51.364;6.788;2023-03-04T12:08:17;7.60;99.90
9215;DHT22;4642;51.364;6.788;2023-03-04T12:10:58;7.70;99.90
9215;DHT22;4642;51.364;6.788;2023-03-04T12:13:43;7.80;99.90
9215;DHT22;4642;51.364;6.788;2023-03-04T12:16:51;7.70;99.90
9215;DHT22;4642;51.364;6.788;2023-03-04T12:19:45;7.80;99.90
9215;DHT22;4642;51.364;6.788;2023-03-04T12:22:44;7.80;99.90
9215;DHT22;4642;51.364;6.788;2023-03-04T12:36:27;8.10;99.90
9215;DHT22;4642;51.364;6.788;2023-03-04T12:39:24;8.00;99.90
9215;DHT22;4642;51.364;6.788;2023-03-04T12:44:49;7.90;99.90
9215;DHT22;4642;51.364;6.788;2023-03-04T12:47:27;7.90;99.90
9215;DHT22;4642;51.364;6.788;2023-03-04T12:50:50;7.90;99.90
9215;DHT22;4642;51.364;6.788;2023-03-04T12:55:41;7.80;99.90
9215;DHT22;4642;51.364;6.788;2023-03-04T12:58:22;7.80;99.90
9215;DHT22;4642;51.364;6.788;2023-03-04T13:03:34;7.70;99.90
9215;DHT22;4642;51.364;6.788;2023-03-04T13:06:37;7.60;99.90
9215;DHT22;4642;51.364;6.788;2023-03-04T13:09:32;7.60;99.90
9215;DHT22;4642;51.364;6.788;2023-03-04T13:12:23;7.50;99.90
9215;DHT22;4642;51.364;6.788;2023-03-04T13:17:47;7.50;99.90
9215;DHT22;4642;51.364;6.788;2023-03-04T13:25:46;7.50;99.90
9215;DHT22;4642;51.364;6.788;2023-03-04T13:35:47;7.50;99.90
9215;DHT22;4642;51.364;6.788;2023-03-04T13:43:51;7.60;99.90
9215;DHT22;4642;51.364;6.788;2023-03-04T13:51:42;7.80;99.90
9215;DHT22;4642;51.364;6.788;2023-03-04T13:56:45;7.80;99.90
9215;DHT22;4642;51.364;6.788;2023-03-04T14:02:13;7.80;99.90
9215;DHT22;4642;51.364;6.788;2023-03-04T14:04:43;7.70;99.90
9215;DHT22;4642;51.364;6.788;2023-03-04T14:07:30;7.70;99.90
9215;DHT22;4642;51.364;6.788;2023-03-04T14:10:06;7.80;99.90
9215;DHT22;4642;51.364;6.788;2023-03-04T14:12:35;7.80;99.90
9215;DHT22;4642;51.364;6.788;2023-03-04T14:15:27;7.80;99.90
9215;DHT22;4642;51.364;6.788;2023-03-04T14:17:58;7.80;99.90
9215;DHT22;4642;51.364;6.788;2023-03-04T14:22:58;7.80;99.90
9215;DHT22;4642;51.364;6.788;2023-03-04T14:25:32;7.70;99.90
9215;DHT22;4642;51.364;6.788;2023-03-04T14:28:25;7.70;99.90
9215;DHT22;4642;51.364;6.788;2023-03-04T14:30:52;7.70;99.90
9215;DHT22;4642;51.364;6.788;2023-03-04T14:33:21;7.70;99.90
9215;DHT22;4642;51.364;6.788;2023-03-04T14:35:50;7.60;99.90
9215;DHT22;4642;51.364;6.788;2023-03-04T14:38:24;7.60;99.90
9215;DHT22;4642;51.364;6.788;2023-03-04T14:41:01;7.60;99.90
9215;DHT22;4642;51.364;6.788;2023-03-04T14:43:31;7.60;99.90
9215;DHT22;4642;51.364;6.788;2023-03-04T14:46:01;7.60;99.90
9215;DHT22;4642;51.364;6.788;2023-03-04T14:48:32;7.60;99.90
9215;DHT22;4642;51.364;6.788;2023-03-04T14:51:00;7.70;99.90
9215;DHT22;4642;51.364;6.788;2023-03-04T14:53:27;7.80;99.90
9215;DHT22;4642;51.364;6.788;2023-03-04T14:56:07;7.80;99.90
9215;DHT22;4642;51.364;6.788;2023-03-04T14:58:38;7.80;99.90
9215;DHT22;4642;51.364;6.788;2023-03-04T15:01:35;7.80;99.90
9215;DHT22;4642;51.364;6.788;2023-03-04T15:04:06;7.80;99.90
9215;DHT22;4642;51.364;6.788;2023-03-04T15:06:36;7.80;99.90
9215;DHT22;4642;51.364;6.788;2023-03-04T15:09:07;7.80;99.90
9215;DHT22;4642;51.364;6.788;2023-03-04T15:11:47;7.80;99.90
9215;DHT22;4642;51.364;6.788;2023-03-04T15:14:54;7.80;99.90
9215;DHT22;4642;51.364;6.788;2023-03-04T15:25:05;7.80;99.90
9215;DHT22;4642;51.364;6.788;2023-03-04T15:27:31;7.70;99.90
9215;DHT22;4642;51.364;6.788;2023-03-04T15:29:58;7.70;99.90
9215;DHT22;4642;51.364;6.788;2023-03-04T15:32:28;7.60;99.90
9215;DHT22;4642;51.364;6.788;2023-03-04T15:34:54;7.60;99.90
9215;DHT22;4642;51.364;6.788;2023-03-04T15:37:26;7.60;99.90
9215;DHT22;4642;51.364;6.788;2023-03-04T15:39:52;7.50;99.90
9215;DHT22;4642;51.364;6.788;2023-03-04T15:42:19;7.50;99.90
9215;DHT22;4642;51.364;6.788;2023-03-04T15:44:45;7.50;99.90
9215;DHT22;4642;51.364;6.788;2023-03-04T15:47:11;7.40;99.90
9215;DHT22;4642;51.364;6.788;2023-03-04T15:49:39;7.30;99.90
9215;DHT22;4642;51.364;6.788;2023-03-04T15:52:08;7.30;99.90
9215;DHT22;4642;51.364;6.788;2023-03-04T15:54:37;7.20;99.90
9215;DHT22;4642;51.364;6.788;2023-03-04T15:57:05;7.10;99.90
9215;DHT22;4642;51.364;6.788;2023-03-04T15:59:32;7.10;99.90
9215;DHT22;4642;51.364;6.788;2023-03-04T16:01:58;7.10;99.90
9215;DHT22;4642;51.364;6.788;2023-03-04T16:04:23;7.10;99.90
9215;DHT22;4642;51.364;6.788;2023-03-04T16:06:49;7.10;99.90
9215;DHT22;4642;51.364;6.788;2023-03-04T16:09:16;7.10;99.90
9215;DHT22;4642;51.364;6.788;2023-03-04T16:11:44;7.10;99.90
9215;DHT22;4642;51.364;6.788;2023-03-04T16:14:12;7.10;99.90
9215;DHT22;4642;51.364;6.788;2023-03-04T16:16:39;7.10;99.90
9215;DHT22;4642;51.364;6.788;2023-03-04T16:19:04;7.10;99.90
9215;DHT22;4642;51.364;6.788;2023-03-04T16:21:30;7.10;99.90
9215;DHT22;4642;51.364;6.788;2023-03-04T16:23:56;7.10;99.90
9215;DHT22;4642;51.364;6.788;2023-03-04T16:26:28;7.10;99.90
9215;DHT22;4642;51.364;6.788;2023-03-04T16:28:54;7.10;99.90
9215;DHT22;4642;51.364;6.788;2023-03-04T16:31:20;7.10;99.90
9215;DHT22;4642;51.364;6.788;2023-03-04T16:33:46;7.10;99.90
9215;DHT22;4642;51.364;6.788;2023-03-04T16:36:13;7.10;99.90
9215;DHT22;4642;51.364;6.788;2023-03-04T16:38:39;7.10;99.90
9215;DHT22;4642;51.364;6.788;2023-03-04T16:41:11;7.10;99.90
9215;DHT22;4642;51.364;6.788;2023-03-04T16:43:37;7.10;99.90
9215;DHT22;4642;51.364;6.788;2023-03-04T16:46:03;7.10;99.90
9215;DHT22;4642;51.364;6.788;2023-03-04T16:48:29;7.10;99.90
9215;DHT22;4642;51.364;6.788;2023-03-04T16:50:55;7.10;99.90
9215;DHT22;4642;51.364;6.788;2023-03-04T16:53:33;7.10;99.90
9215;DHT22;4642;51.364;6.788;2023-03-04T16:56:04;7.10;99.90
9215;DHT22;4642;51.364;6.788;2023-03-04T16:58:30;7.20;99.90
9215;DHT22;4642;51.364;6.788;2023-03-04T17:00:55;7.20;99.90
9215;DHT22;4642;51.364;6.788;2023-03-04T17:03:21;7.10;99.90
9215;DHT22;4642;51.364;6.788;2023-03-04T17:05:46;7.10;99.90
9215;DHT22;4642;51.364;6.788;2023-03-04T17:08:12;7.10;99.90
9215;DHT22;4642;51.364;6.788;2023-03-04T17:10:37;7.10;99.90
9215;DHT22;4642;51.364;6.788;2023-03-04T17:13:04;7.10;99.90
9215;DHT22;4642;51.364;6.788;2023-03-04T17:15:29;7.10;99.90
9215;DHT22;4642;51.364;6.788;2023-03-04T17:17:55;7.10;99.90
9215;DHT22;4642;51.364;6.788;2023-03-04T17:20:21;7.00;99.90
9215;DHT22;4642;51.364;6.788;2023-03-04T17:22:47;7.00;99.90
9215;DHT22;4642;51.364;6.788;2023-03-04T17:25:13;7.00;99.90
9215;DHT22;4642;51.364;6.788;2023-03-04T17:27:39;7.00;99.90
9215;DHT22;4642;51.364;6.788;2023-03-04T17:30:06;7.00;99.90
9215;DHT22;4642;51.364;6.788;2023-03-04T17:32:32;7.00;99.90
9215;DHT22;4642;51.364;6.788;2023-03-04T17:34:58;7.00;99.90
9215;DHT22;4642;51.364;6.788;2023-03-04T17:37:24;7.00;99.90
9215;DHT22;4642;51.364;6.788;2023-03-04T17:39:50;7.00;99.90
9215;DHT22;4642;51.364;6.788;2023-03-04T17:42:16;7.00;99.90
9215;DHT22;4642;51.364;6.788;2023-03-04T17:44:41;7.00;99.90
9215;DHT22;4642;51.364;6.788;2023-03-04T17:47:07;7.00;99.90
9215;DHT22;4642;51.364;6.788;2023-03-04T17:49:32;7.00;99.90
9215;DHT22;4642;51.364;6.788;2023-03-04T17:51:59;7.00;99.90
9215;DHT22;4642;51.364;6.788;2023-03-04T17:54:24;7.00;99.90
9215;DHT22;4642;51.364;6.788;2023-03-04T17:56:50;7.00;99.90
9215;DHT22;4642;51.364;6.788;2023-03-04T17:59:16;6.90;99.90
9215;DHT22;4642;51.364;6.788;2023-03-04T18:01:43;6.90;99.90
9215;DHT22;4642;51.364;6.788;2023-03-04T18:04:13;6.90;99.90
9215;DHT22;4642;51.364;6.788;2023-03-04T18:06:39;6.90;99.90
9215;DHT22;4642;51.364;6.788;2023-03-04T18:09:05;6.90;99.90
9215;DHT22;4642;51.364;6.788;2023-03-04T18:11:32;6.90;99.90
9215;DHT22;4642;51.364;6.788;2023-03-04T18:13:58;6.90;99.90
9215;DHT22;4642;51.364;6.788;2023-03-04T18:16:23;6.90;99.90
9215;DHT22;4642;51.364;6.788;2023-03-04T18:18:52;6.90;99.90
9215;DHT22;4642;51.364;6.788;2023-03-04T18:21:20;6.90;99.90
9215;DHT22;4642;51.364;6.788;2023-03-04T18:23:46;6.90;99.90
9215;DHT22;4642;51.364;6.788;2023-03-04T18:26:12;6.90;99.90
9215;DHT22;4642;51.364;6.788;2023-03-04T18:28:38;6.90;99.90
9215;DHT22;4642;51.364;6.788;2023-03-04T18:31:03;6.90;99.90
9215;DHT22;4642;51.364;6.788;2023-03-04T18:33:30;6.90;99.90
9215;DHT22;4642;51.364;6.788;2023-03-04T18:35:57;6.90;99.90
9215;DHT22;4642;51.364;6.788;2023-03-04T18:38:23;6.90;99.90
9215;DHT22;4642;51.364;6.788;2023-03-04T18:40:49;6.90;99.90
9215;DHT22;4642;51.364;6.788;2023-03-04T18:43:16;6.90;99.90
9215;DHT22;4642;51.364;6.788;2023-03-04T18:45:41;6.80;99.90
9215;DHT22;4642;51.364;6.788;2023-03-04T18:48:07;6.80;99.90
9215;DHT22;4642;51.364;6.788;2023-03-04T18:50:32;6.80;99.90
9215;DHT22;4642;51.364;6.788;2023-03-04T18:52:58;6.80;99.90
9215;DHT22;4642;51.364;6.788;2023-03-04T18:55:23;6.70;99.90
9215;DHT22;4642;51.364;6.788;2023-03-04T18:57:53;6.70;99.90
9215;DHT22;4642;51.364;6.788;2023-03-04T19:00:21;6.70;99.90
9215;DHT22;4642;51.364;6.788;2023-03-04T19:03:01;6.70;99.90
9215;DHT22;4642;51.364;6.788;2023-03-04T19:05:29;6.70;99.90
9215;DHT22;4642;51.364;6.788;2023-03-04T19:07:55;6.70;99.90
9215;DHT22;4642;51.364;6.788;2023-03-04T19:10:22;6.60;99.90
9215;DHT22;4642;51.364;6.788;2023-03-04T19:12:48;6.60;99.90
9215;DHT22;4642;51.364;6.788;2023-03-04T19:15:14;6.60;99.90
9215;DHT22;4642;51.364;6.788;2023-03-04T19:17:40;6.60;99.90
9215;DHT22;4642;51.364;6.788;2023-03-04T19:20:10;6.60;99.90
9215;DHT22;4642;51.364;6.788;2023-03-04T19:22:35;6.60;99.90
9215;DHT22;4642;51.364;6.788;2023-03-04T19:25:01;6.60;99.90
9215;DHT22;4642;51.364;6.788;2023-03-04T19:27:27;6.60;99.90
9215;DHT22;4642;51.364;6.788;2023-03-04T19:29:52;6.50;99.90
9215;DHT22;4642;51.364;6.788;2023-03-04T19:32:18;6.50;99.90
9215;DHT22;4642;51.364;6.788;2023-03-04T19:34:44;6.50;99.90
9215;DHT22;4642;51.364;6.788;2023-03-04T19:37:11;6.50;99.90
9215;DHT22;4642;51.364;6.788;2023-03-04T19:39:37;6.50;99.90
9215;DHT22;4642;51.364;6.788;2023-03-04T19:42:03;6.50;99.90
9215;DHT22;4642;51.364;6.788;2023-03-04T19:44:28;6.50;99.90
9215;DHT22;4642;51.364;6.788;2023-03-04T19:46:54;6.50;99.90
9215;DHT22;4642;51.364;6.788;2023-03-04T19:49:19;6.50;99.90
9215;DHT22;4642;51.364;6.788;2023-03-04T19:51:45;6.50;99.90
9215;DHT22;4642;51.364;6.788;2023-03-04T19:54:10;6.50;99.90
9215;DHT22;4642;51.364;6.788;2023-03-04T19:56:36;6.50;99.90
9215;DHT22;4642;51.364;6.788;2023-03-04T19:59:02;6.50;99.90
9215;DHT22;4642;51.364;6.788;2023-03-04T20:01:30;6.50;99.90
9215;DHT22;4642;51.364;6.788;2023-03-04T20:03:59;6.50;99.90
9215;DHT22;4642;51.364;6.788;2023-03-04T20:06:25;6.40;99.90
9215;DHT22;4642;51.364;6.788;2023-03-04T20:08:54;6.70;99.90
9215;DHT22;4642;51.364;6.788;2023-03-04T20:11:19;6.40;99.90
9215;DHT22;4642;51.364;6.788;2023-03-04T20:13:45;6.40;99.90
9215;DHT22;4642;51.364;6.788;2023-03-04T20:16:11;6.40;99.90
9215;DHT22;4642;51.364;6.788;2023-03-04T20:18:37;6.40;99.90